Varnville, South Carolina
Current Conditions -  °F | °C
As of 5:55 AM on Sunday 23 Nov 2014 (Local Time) from KAQX Reporting Station
Light Rain Light Rain  
Wind Chill: 55°   Ceiling: 2700
Heat Index: 55°   Visibility: 3mi
Dew Point: 55°   Wind: 0mph
Humidity: 100%   Direction: NA
Pressure: 30.13"   Gusts: NA
Location:  32.85°N, 81.08°W
Report Text: KAQX 231055Z AUTO 00000KT 3SM -RA FEW005 SCT023 BKN027 13/13 A3013 RMK AO2
Loading
Personal Weather Stations






























Interactive Weather Map New forecast layout! Learn more

10-Day Weather Forecast

Advertisements
Track Severe Weather on mobile